Time;durP1;ratioP1;P1;durP2;ratioP2;P2;SDS_P1;SDS_P2;PMS_P1;PMS_P2;Temp;Humidity;BMP_temperature;BMP_pressure;BME280_temperature;BME280_humidity;BME280_pressure;Samples;Min_cycle;Max_cycle;Signal;HPM_P1;HPM_P2
2021/10/09 00:00:06;;;;;;;458.67;122.73;;;12.20;99.90;;;;;;6166735;23;20400;-74
2021/10/09 00:02:34;;;;;;;357.63;105.07;;;12.20;99.90;;;;;;6130735;23;20416;-74
2021/10/09 00:05:02;;;;;;;404.83;107.00;;;12.10;99.90;;;;;;6130542;23;20427;-75
2021/10/09 00:07:30;;;;;;;389.07;113.73;;;12.20;99.90;;;;;;6166942;23;20519;-74
2021/10/09 00:10:01;;;;;;;418.63;104.17;;;12.10;99.90;;;;;;6166620;23;20428;-75
2021/10/09 00:12:30;;;;;;;394.83;108.70;;;12.20;99.90;;;;;;6130746;23;20448;-74
2021/10/09 00:14:59;;;;;;;490.60;125.00;;;12.10;99.90;;;;;;6130603;23;20473;-73
2021/10/09 00:17:29;;;;;;;441.97;117.43;;;12.10;99.90;;;;;;6130866;23;20754;-75
2021/10/09 00:19:58;;;;;;;374.63;112.00;;;12.20;99.90;;;;;;6160698;23;20440;-74
2021/10/09 00:22:26;;;;;;;42.53;37.72;;;12.10;99.90;;;;;;6129745;23;20429;-74
2021/10/09 00:24:54;;;;;;;387.37;100.60;;;12.20;99.90;;;;;;6130345;23;20259;-74
2021/10/09 00:27:22;;;;;;;153.18;67.18;;;12.20;99.90;;;;;;6130185;23;20420;-75
2021/10/09 00:29:50;;;;;;;487.63;110.77;;;12.20;99.90;;;;;;6130682;23;20193;-74
2021/10/09 00:32:19;;;;;;;386.57;105.27;;;12.20;99.90;;;;;;6130567;23;20942;-74
2021/10/09 00:34:48;;;;;;;408.80;90.70;;;12.20;99.90;;;;;;6166511;23;20695;-75
2021/10/09 00:37:16;;;;;;;213.70;79.13;;;12.20;99.90;;;;;;6130493;23;20447;-74
2021/10/09 00:39:44;;;;;;;394.33;111.40;;;12.10;99.90;;;;;;6130251;23;20443;-74
2021/10/09 00:42:12;;;;;;;470.67;118.57;;;12.10;99.90;;;;;;6156785;23;20418;-74
2021/10/09 00:44:41;;;;;;;389.50;132.57;;;12.10;99.90;;;;;;6130525;23;20467;-74
2021/10/09 00:47:09;;;;;;;385.53;118.67;;;12.10;99.90;;;;;;6130508;23;20404;-74
2021/10/09 00:49:38;;;;;;;463.03;119.37;;;12.10;99.90;;;;;;6130104;23;20981;-74
2021/10/09 00:52:11;;;;;;;408.17;135.03;;;12.10;99.90;;;;;;6130273;23;20722;-74
2021/10/09 00:54:44;;;;;;;460.13;122.90;;;12.10;99.90;;;;;;6130570;23;20409;-74
2021/10/09 00:57:16;;;;;;;474.33;106.40;;;12.00;99.90;;;;;;6166075;23;20389;-74
2021/10/09 00:59:44;;;;;;;432.50;94.70;;;12.00;99.90;;;;;;6131003;23;20807;-74
2021/10/09 01:02:13;;;;;;;444.17;96.60;;;12.00;99.90;;;;;;6130242;23;20451;-74
2021/10/09 01:04:43;;;;;;;445.80;105.20;;;12.00;99.90;;;;;;6130324;23;20451;-74
2021/10/09 01:07:12;;;;;;;556.27;96.83;;;12.00;99.90;;;;;;6130091;23;20400;-74
2021/10/09 01:09:43;;;;;;;378.43;100.87;;;11.90;99.90;;;;;;6130050;23;20444;-74
2021/10/09 01:12:13;;;;;;;45.97;39.22;;;11.90;99.90;;;;;;6129211;23;20524;-74
2021/10/09 01:14:42;;;;;;;300.20;102.67;;;12.00;99.90;;;;;;6130905;23;20184;-74
2021/10/09 01:17:12;;;;;;;403.70;135.07;;;12.00;99.90;;;;;;6130162;23;20751;-74
2021/10/09 01:19:42;;;;;;;374.73;107.53;;;11.90;99.90;;;;;;6131848;23;20452;-74
2021/10/09 01:22:13;;;;;;;338.93;91.97;;;11.80;99.90;;;;;;6154918;23;20419;-74
2021/10/09 01:24:42;;;;;;;583.73;119.80;;;11.80;99.90;;;;;;6156077;23;20767;-74
2021/10/09 01:27:18;;;;;;;467.23;107.80;;;11.80;99.90;;;;;;6155118;23;20412;-74
2021/10/09 01:29:47;;;;;;;381.17;86.13;;;11.70;99.90;;;;;;6154377;23;20462;-74
2021/10/09 01:32:19;;;;;;;440.90;105.93;;;11.70;99.90;;;;;;6155512;23;20408;-74
2021/10/09 01:34:47;;;;;;;314.87;74.73;;;11.70;99.90;;;;;;6154732;23;20444;-74
2021/10/09 01:37:19;;;;;;;275.33;75.93;;;11.70;99.90;;;;;;6155475;23;20396;-74
2021/10/09 01:39:49;;;;;;;405.67;82.70;;;11.70;99.90;;;;;;6155679;23;20440;-74
2021/10/09 01:42:22;;;;;;;276.10;70.40;;;11.60;99.90;;;;;;6154587;23;20812;-75
2021/10/09 01:56:39;;;;;;;43.47;37.70;;;11.50;99.90;;;;;;6125334;23;20489;-73
2021/10/09 01:59:08;;;;;;;347.83;85.93;;;11.60;99.90;;;;;;6071943;23;20173;-74
2021/10/09 02:01:47;;;;;;;347.23;104.60;;;11.60;99.90;;;;;;6071797;23;20988;-74
2021/10/09 02:04:17;;;;;;;362.87;96.40;;;11.50;99.90;;;;;;6100844;23;20401;-74
2021/10/09 02:06:48;;;;;;;314.10;82.17;;;11.50;99.90;;;;;;6100534;23;20816;-74
2021/10/09 02:09:17;;;;;;;263.50;85.80;;;11.40;99.90;;;;;;6101791;23;20476;-73
2021/10/09 02:11:50;;;;;;;341.20;76.13;;;11.40;99.90;;;;;;6101039;23;20433;-74
2021/10/09 02:14:24;;;;;;;264.03;72.60;;;11.40;99.90;;;;;;6100637;23;20452;-74
2021/10/09 02:17:12;;;;;;;263.10;70.67;;;11.40;99.90;;;;;;6100499;23;20413;-74
2021/10/09 02:25:44;;;;;;;326.00;73.83;;;11.30;99.90;;;;;;6065825;23;20922;-74
2021/10/09 02:28:17;;;;;;;313.93;82.60;;;11.20;99.90;;;;;;6041841;23;20490;-74
2021/10/09 02:30:46;;;;;;;330.40;80.00;;;11.20;99.90;;;;;;6075220;23;20428;-74
2021/10/09 02:33:16;;;;;;;245.37;71.13;;;11.20;99.90;;;;;;6100481;23;20413;-74
2021/10/09 02:35:46;;;;;;;44.20;37.78;;;11.10;99.90;;;;;;6135464;23;20413;-73
2021/10/09 02:38:14;;;;;;;395.20;81.33;;;11.20;99.90;;;;;;6100223;23;20200;-73
2021/10/09 02:40:44;;;;;;;166.63;53.60;;;11.20;99.90;;;;;;6124192;23;20769;-73
2021/10/09 02:43:16;;;;;;;267.77;95.67;;;11.20;99.90;;;;;;6101805;23;20444;-74
2021/10/09 02:45:44;;;;;;;407.10;89.93;;;11.20;99.90;;;;;;6102499;23;20442;-74
2021/10/09 02:48:16;;;;;;;292.97;65.07;;;11.10;99.90;;;;;;6102223;23;20440;-74
2021/10/09 02:50:47;;;;;;;192.93;63.20;;;11.10;99.90;;;;;;6102242;23;20491;-74
2021/10/09 02:53:19;;;;;;;282.73;64.33;;;11.00;99.90;;;;;;6102284;23;20488;-73
2021/10/09 02:55:48;;;;;;;287.30;68.23;;;11.00;99.90;;;;;;6102079;23;20432;-73
2021/10/09 02:58:19;;;;;;;368.63;74.07;;;11.00;99.90;;;;;;6126041;23;20488;-75
2021/10/09 03:00:48;;;;;;;384.07;73.43;;;10.90;99.90;;;;;;6102060;23;20464;-74
2021/10/09 03:03:18;;;;;;;245.20;64.33;;;10.90;99.90;;;;;;6102246;23;20401;-74
2021/10/09 03:05:46;;;;;;;298.33;76.53;;;10.90;99.90;;;;;;6102076;23;20935;-74
2021/10/09 03:08:15;;;;;;;306.80;71.43;;;10.90;99.90;;;;;;6101949;23;21026;-74
2021/10/09 03:10:43;;;;;;;316.23;79.47;;;10.90;99.90;;;;;;6102115;23;20452;-74
2021/10/09 03:13:11;;;;;;;197.47;63.33;;;10.90;99.90;;;;;;6102005;23;20421;-74
2021/10/09 03:15:43;;;;;;;341.47;76.83;;;10.90;99.90;;;;;;6102203;23;20416;-74
2021/10/09 03:18:11;;;;;;;276.73;66.97;;;10.90;99.90;;;;;;6137763;23;20414;-74
2021/10/09 03:20:40;;;;;;;102.30;44.72;;;10.90;99.90;;;;;;6102573;23;20485;-74
2021/10/09 03:23:12;;;;;;;352.83;85.97;;;10.90;99.90;;;;;;6102025;23;20237;-73
2021/10/09 03:25:40;;;;;;;280.98;66.50;;;10.90;99.90;;;;;;6101952;23;20385;-74
2021/10/09 03:28:11;;;;;;;304.53;63.27;;;10.90;99.90;;;;;;6101775;23;20193;-74
2021/10/09 03:30:39;;;;;;;271.60;67.43;;;10.80;99.90;;;;;;6102152;23;20528;-74
2021/10/09 03:33:09;;;;;;;274.70;54.43;;;10.80;99.90;;;;;;6101898;23;20468;-74
2021/10/09 03:35:37;;;;;;;215.10;61.00;;;10.80;99.90;;;;;;6101889;23;20483;-74
2021/10/09 03:38:05;;;;;;;272.83;65.23;;;10.80;99.90;;;;;;6137484;23;20426;-74
2021/10/09 03:40:36;;;;;;;276.57;74.30;;;10.80;99.90;;;;;;6101826;23;20464;-74
2021/10/09 03:43:07;;;;;;;336.83;67.20;;;10.70;99.90;;;;;;6126439;23;20899;-74
2021/10/09 03:45:40;;;;;;;300.43;64.60;;;10.70;99.90;;;;;;6101816;23;20444;-74
2021/10/09 03:48:23;;;;;;;125.53;45.57;;;10.70;99.90;;;;;;6102303;23;20441;-74
2021/10/09 03:53:39;;;;;;;222.37;54.73;;;10.70;99.90;;;;;;6137161;23;20464;-74
2021/10/09 03:56:09;;;;;;;363.47;65.80;;;10.60;99.90;;;;;;6126377;23;20429;-74
2021/10/09 03:58:42;;;;;;;262.50;62.80;;;10.60;99.90;;;;;;6101520;23;20776;-73
2021/10/09 04:01:11;;;;;;;370.63;74.43;;;10.60;99.90;;;;;;6101559;23;20421;-74
2021/10/09 04:03:43;;;;;;;265.17;72.73;;;10.50;99.90;;;;;;6101570;23;20426;-74
2021/10/09 04:06:11;;;;;;;239.83;66.23;;;10.50;99.90;;;;;;6101619;23;20565;-75
2021/10/09 04:08:40;;;;;;;321.80;72.13;;;10.40;99.90;;;;;;6101499;23;20744;-74
2021/10/09 04:11:08;;;;;;;364.37;71.53;;;10.40;99.90;;;;;;6101364;23;20441;-74
2021/10/09 04:13:37;;;;;;;242.17;65.50;;;10.30;99.90;;;;;;6102427;23;20421;-75
2021/10/09 04:16:05;;;;;;;319.67;69.17;;;10.30;99.90;;;;;;6101353;23;20900;-75
2021/10/09 04:18:35;;;;;;;323.20;75.87;;;10.20;99.90;;;;;;6101345;23;20537;-74
2021/10/09 04:21:06;;;;;;;330.43;68.53;;;10.20;99.90;;;;;;6101192;23;20817;-74
2021/10/09 04:23:35;;;;;;;262.33;61.53;;;10.20;99.90;;;;;;6101468;23;20409;-74
2021/10/09 04:26:04;;;;;;;155.90;57.60;;;10.10;99.90;;;;;;6101293;23;20441;-74
2021/10/09 04:28:34;;;;;;;277.17;60.57;;;10.10;99.90;;;;;;6101223;23;20441;-74
2021/10/09 04:31:03;;;;;;;262.03;51.93;;;10.10;99.90;;;;;;6101277;23;20525;-74
2021/10/09 04:33:34;;;;;;;203.40;48.43;;;10.00;99.90;;;;;;6101239;23;20417;-74
2021/10/09 04:36:03;;;;;;;319.90;67.03;;;10.00;99.90;;;;;;6102382;23;20418;-74
2021/10/09 04:38:32;;;;;;;257.57;60.80;;;10.00;99.90;;;;;;6101235;23;20441;-74
2021/10/09 04:41:00;;;;;;;180.83;43.83;;;10.00;99.90;;;;;;6101208;23;20420;-74
2021/10/09 04:43:30;;;;;;;295.87;61.73;;;9.90;99.90;;;;;;6101291;23;20469;-74
2021/10/09 04:45:59;;;;;;;308.83;57.60;;;9.90;99.90;;;;;;6101123;23;20422;-74
2021/10/09 04:48:28;;;;;;;257.33;63.17;;;9.90;99.90;;;;;;6101188;23;20437;-74
2021/10/09 04:50:57;;;;;;;213.27;61.57;;;9.90;99.90;;;;;;6100788;23;20440;-74
2021/10/09 04:53:25;;;;;;;188.53;55.57;;;9.90;99.90;;;;;;6101047;23;20414;-74
2021/10/09 04:55:55;;;;;;;29.85;27.05;;;9.80;99.90;;;;;;6099564;23;20426;-74
2021/10/09 04:58:23;;;;;;;100.17;58.53;;;9.90;99.90;;;;;;6100957;23;20197;-74
2021/10/09 05:00:52;;;;;;;30.80;27.80;;;9.90;99.90;;;;;;6135757;23;20870;-74
2021/10/09 05:03:23;;;;;;;421.10;138.33;;;9.90;99.90;;;;;;6101058;23;20169;-74
2021/10/09 05:05:51;;;;;;;197.83;48.20;;;9.90;99.90;;;;;;6100845;23;20592;-74
2021/10/09 05:08:20;;;;;;;384.07;69.53;;;9.90;99.90;;;;;;6100826;23;20439;-74
2021/10/09 05:10:48;;;;;;;322.70;62.43;;;9.80;99.90;;;;;;6100826;23;20492;-74
2021/10/09 05:13:22;;;;;;;269.13;57.30;;;9.80;99.90;;;;;;6101648;23;20784;-74
2021/10/09 05:15:53;;;;;;;179.37;40.97;;;9.70;99.90;;;;;;6101219;23;20417;-74
2021/10/09 05:18:23;;;;;;;468.17;71.70;;;9.70;99.90;;;;;;6101525;23;20780;-74
2021/10/09 05:20:51;;;;;;;243.63;56.50;;;9.70;99.90;;;;;;6101116;23;20509;-74
2021/10/09 05:23:22;;;;;;;264.20;55.53;;;9.60;99.90;;;;;;6100879;23;20413;-74
2021/10/09 05:25:54;;;;;;;285.97;63.90;;;9.60;99.90;;;;;;6100907;23;20467;-74
2021/10/09 05:28:36;;;;;;;211.43;49.40;;;9.60;99.90;;;;;;6100591;23;20441;-74
2021/10/09 05:31:05;;;;;;;278.90;56.90;;;9.50;99.90;;;;;;6136635;23;20422;-74
2021/10/09 05:33:42;;;;;;;221.17;52.30;;;9.50;99.90;;;;;;6100901;23;20417;-74
2021/10/09 05:36:11;;;;;;;322.67;62.23;;;9.40;99.90;;;;;;6100929;23;20424;-74
2021/10/09 05:38:40;;;;;;;246.00;63.37;;;9.40;99.90;;;;;;6100673;23;20432;-74
2021/10/09 05:41:09;;;;;;;256.40;61.27;;;9.40;99.90;;;;;;6100687;23;20417;-74
2021/10/09 05:43:44;;;;;;;27.43;24.73;;;9.40;99.90;;;;;;6100991;23;20461;-74
2021/10/09 05:46:13;;;;;;;260.43;58.93;;;9.40;99.90;;;;;;6101230;23;20744;-74
2021/10/09 05:48:42;;;;;;;265.57;70.13;;;9.40;99.90;;;;;;6100590;23;20439;-74
2021/10/09 05:51:15;;;;;;;276.30;54.70;;;9.40;99.90;;;;;;6100219;23;20490;-74
2021/10/09 05:54:03;;;;;;;344.70;59.63;;;9.30;99.90;;;;;;6100748;23;20754;-74
2021/10/09 05:56:42;;;;;;;181.17;41.30;;;9.30;99.90;;;;;;6100516;23;20508;-75
2021/10/09 06:45:34;;;;;;;233.43;49.97;;;9.00;99.90;;;;;;6015426;23;20447;-74
2021/10/09 06:48:12;;;;;;;271.57;54.83;;;9.00;99.90;;;;;;6126934;23;20452;-75
2021/10/09 06:51:10;;;;;;;159.03;55.30;;;9.00;99.90;;;;;;6102710;23;20428;-75
2021/10/09 06:59:37;;;;;;;244.53;50.53;;;8.90;99.90;;;;;;6039033;23;20422;-74
2021/10/09 07:02:06;;;;;;;251.67;60.10;;;8.90;99.90;;;;;;6091306;23;20448;-73
2021/10/09 07:04:35;;;;;;;226.90;60.13;;;8.90;99.90;;;;;;6102496;23;20917;-74
2021/10/09 07:07:07;;;;;;;194.30;53.67;;;8.90;99.90;;;;;;6102394;23;20441;-75
2021/10/09 07:09:51;;;;;;;152.60;42.47;;;8.90;99.90;;;;;;6102601;23;20448;-74
2021/10/09 07:12:22;;;;;;;115.27;44.57;;;8.90;99.90;;;;;;6102157;23;20429;-74
2021/10/09 07:14:50;;;;;;;249.43;59.77;;;8.90;99.90;;;;;;6102203;23;20441;-74
2021/10/09 07:17:18;;;;;;;231.27;58.57;;;8.90;99.90;;;;;;6101986;23;20445;-75
2021/10/09 07:19:47;;;;;;;217.03;53.03;;;8.90;99.90;;;;;;6102163;23;20424;-74
2021/10/09 07:22:17;;;;;;;363.30;65.77;;;8.90;99.90;;;;;;6102204;23;20418;-75
2021/10/09 07:25:07;;;;;;;294.83;60.40;;;8.90;99.90;;;;;;6101672;23;20495;-74
2021/10/09 07:27:37;;;;;;;27.98;25.17;;;9.00;99.90;;;;;;6100792;23;20514;-75
2021/10/09 07:30:07;;;;;;;365.10;102.73;;;9.10;99.90;;;;;;6101662;23;20181;-76
2021/10/09 07:32:36;;;;;;;28.67;25.98;;;9.10;99.90;;;;;;6136555;23;20422;-76
2021/10/09 07:35:05;;;;;;;350.53;96.53;;;9.20;99.90;;;;;;6102309;23;20177;-76
2021/10/09 07:37:35;;;;;;;216.77;54.70;;;9.20;99.90;;;;;;6127783;23;20939;-76
2021/10/09 07:40:04;;;;;;;295.93;61.90;;;9.20;99.90;;;;;;6137687;23;20397;-75
2021/10/09 07:42:32;;;;;;;220.13;45.20;;;9.20;99.90;;;;;;6101990;23;20452;-76
2021/10/09 07:45:00;;;;;;;227.33;48.73;;;9.20;99.90;;;;;;6137541;23;20394;-75
2021/10/09 07:47:28;;;;;;;204.43;40.23;;;9.20;99.90;;;;;;6101640;23;20528;-76
2021/10/09 07:50:11;;;;;;;176.97;39.30;;;9.20;99.90;;;;;;6101758;23;20934;-76
2021/10/09 07:52:46;;;;;;;173.70;42.07;;;9.30;99.90;;;;;;6101628;23;20461;-75
2021/10/09 07:55:18;;;;;;;231.83;55.33;;;9.30;99.90;;;;;;6134524;23;20880;-76
2021/10/09 07:57:49;;;;;;;325.70;65.93;;;9.40;99.90;;;;;;6101528;23;20862;-76
2021/10/09 08:00:18;;;;;;;294.90;64.47;;;9.50;99.90;;;;;;6101705;23;20421;-77
2021/10/09 08:02:50;;;;;;;278.43;60.60;;;9.60;99.90;;;;;;6101516;23;20920;-76
2021/10/09 08:05:24;;;;;;;438.70;74.23;;;9.70;99.90;;;;;;6137207;23;20437;-76
2021/10/09 08:07:54;;;;;;;455.83;82.87;;;9.80;99.90;;;;;;6101702;23;20445;-76
2021/10/09 08:10:28;;;;;;;452.23;81.10;;;9.90;99.90;;;;;;6101548;23;20413;-76
2021/10/09 08:12:57;;;;;;;384.80;69.33;;;10.00;99.90;;;;;;6128123;23;20430;-76
2021/10/09 08:15:28;;;;;;;148.17;48.47;;;10.10;99.90;;;;;;6137440;23;20401;-76
2021/10/09 08:17:57;;;;;;;316.03;63.50;;;10.20;99.90;;;;;;6137932;23;20417;-76
2021/10/09 08:20:25;;;;;;;25.70;23.10;;;10.30;99.90;;;;;;6100550;23;20425;-76
2021/10/09 08:23:02;;;;;;;1999.90;895.07;;;10.50;99.90;;;;;;6101475;23;20177;-76
2021/10/09 08:25:56;;;;;;;130.80;45.30;;;10.60;99.90;;;;;;6100809;23;20426;-75
2021/10/09 08:36:51;;;;;;;371.17;103.63;;;10.90;99.90;;;;;;6126961;23;20477;-76
2021/10/09 08:39:19;;;;;;;389.37;96.03;;;11.00;99.90;;;;;;6101300;23;20758;-76
2021/10/09 08:41:50;;;;;;;88.53;52.17;;;11.00;99.90;;;;;;6101162;23;20500;-76
2021/10/09 08:44:19;;;;;;;188.37;82.90;;;11.10;99.90;;;;;;6101155;23;20805;-75
2021/10/09 08:46:48;;;;;;;299.97;122.23;;;11.10;99.90;;;;;;6101028;23;20516;-76
2021/10/09 08:49:16;;;;;;;466.07;131.07;;;11.20;99.90;;;;;;6127373;23;20837;-75
2021/10/09 08:51:50;;;;;;;423.77;148.23;;;11.20;99.90;;;;;;6101279;23;20441;-76
2021/10/09 08:54:21;;;;;;;280.47;105.27;;;11.20;99.90;;;;;;6102234;23;20417;-75
2021/10/09 08:56:49;;;;;;;280.63;138.27;;;11.20;99.90;;;;;;6100869;23;20437;-75
2021/10/09 08:59:22;;;;;;;362.03;175.73;;;11.30;99.90;;;;;;6101040;23;20440;-75
2021/10/09 09:02:03;;;;;;;280.27;121.23;;;11.30;99.90;;;;;;6136712;23;20420;-76
2021/10/09 09:04:45;;;;;;;524.63;150.70;;;11.30;99.90;;;;;;6127113;23;20397;-76
2021/10/09 09:35:21;;;;;;;1999.90;963.60;;;11.80;99.90;;;;;;6083573;23;20452;-76
2021/10/09 09:40:41;;;;;;;1999.90;978.13;;;11.80;99.90;;;;;;6100705;23;20413;-76
2021/10/09 09:43:13;;;;;;;1999.90;855.30;;;11.90;99.90;;;;;;6101007;23;20410;-76
2021/10/09 09:45:41;;;;;;;1999.90;797.40;;;11.90;99.90;;;;;;6126998;23;20438;-76
2021/10/09 09:48:10;;;;;;;1999.90;834.60;;;11.90;99.90;;;;;;6100888;23;20442;-76
2021/10/09 09:50:40;;;;;;;1999.90;910.70;;;12.00;99.90;;;;;;6126614;23;20414;-75
2021/10/09 09:53:08;;;;;;;1999.90;753.50;;;12.00;99.90;;;;;;6126703;23;20468;-76
2021/10/09 09:55:37;;;;;;;1999.90;557.87;;;12.10;99.90;;;;;;6126851;23;20444;-76
2021/10/09 09:58:16;;;;;;;1999.90;781.90;;;12.10;99.90;;;;;;6136579;23;20476;-76
2021/10/09 10:00:45;;;;;;;1999.90;825.70;;;12.20;99.90;;;;;;6100670;23;20437;-76
2021/10/09 10:03:13;;;;;;;1999.90;642.73;;;12.20;99.90;;;;;;6100510;23;20314;-76
2021/10/09 10:05:42;;;;;;;1999.90;585.87;;;12.20;99.90;;;;;;6100679;23;20410;-76
2021/10/09 10:08:12;;;;;;;1999.90;830.00;;;12.30;99.90;;;;;;6126694;23;20425;-76
2021/10/09 10:10:40;;;;;;;1999.90;999.90;;;12.30;99.90;;;;;;6099184;23;20437;-76
2021/10/09 10:13:09;;;;;;;1999.90;999.90;;;12.40;99.90;;;;;;6136025;23;20240;-76
2021/10/09 10:15:39;;;;;;;1999.90;999.90;;;12.40;99.90;;;;;;6127433;23;20409;-76
2021/10/09 10:18:07;;;;;;;1999.90;787.40;;;12.40;99.90;;;;;;6126583;23;20437;-76
2021/10/09 10:20:49;;;;;;;1999.90;802.77;;;12.40;99.90;;;;;;6100377;23;20409;-76
2021/10/09 10:23:36;;;;;;;1999.90;591.83;;;12.50;99.90;;;;;;6100798;23;20419;-76
2021/10/09 10:26:26;;;;;;;1999.90;605.90;;;12.50;99.90;;;;;;6100577;23;20405;-76
2021/10/09 10:29:23;;;;;;;1999.90;892.43;;;12.50;99.90;;;;;;6126658;23;20436;-76
2021/10/09 10:32:17;;;;;;;1999.90;831.70;;;12.50;99.90;;;;;;6100606;23;20421;-75
2021/10/09 10:34:46;;;;;;;1999.90;759.10;;;12.60;99.90;;;;;;6100490;23;20433;-76
2021/10/09 10:37:35;;;;;;;1999.90;526.77;;;12.60;99.90;;;;;;6136401;23;20429;-76
2021/10/09 10:40:04;;;;;;;1999.90;999.90;;;12.70;99.90;;;;;;6100538;23;20405;-76
2021/10/09 10:42:32;;;;;;;1999.90;627.27;;;12.70;99.90;;;;;;6136125;23;20400;-76
2021/10/09 10:48:04;;;;;;;1999.90;999.90;;;12.80;99.90;;;;;;6098150;23;20447;-76
2021/10/09 10:51:05;;;;;;;1999.90;753.77;;;12.90;99.90;;;;;;6100469;23;20401;-76
2021/10/09 10:54:18;;;;;;;1999.90;999.90;;;12.90;99.90;;;;;;6135005;23;20506;-76
2021/10/09 10:57:30;;;;;;;1999.90;999.90;;;13.00;99.90;;;;;;6100527;23;20811;-76
2021/10/09 11:00:14;;;;;;;1856.88;158.52;;;13.10;99.90;;;;;;6099127;23;20501;-75
2021/10/09 11:02:48;;;;;;;1999.90;999.90;;;13.20;99.90;;;;;;6100548;23;20541;-76
2021/10/09 11:05:17;;;;;;;1999.90;536.33;;;13.20;99.90;;;;;;6138379;23;20385;-76
2021/10/09 11:07:52;;;;;;;1999.90;999.90;;;13.30;99.90;;;;;;6102202;23;20443;-76
2021/10/09 11:10:22;;;;;;;1999.90;999.90;;;13.30;99.90;;;;;;6102012;23;20754;-76
2021/10/09 11:12:51;;;;;;;1999.90;999.90;;;13.30;99.90;;;;;;6128083;23;21014;-76
2021/10/09 11:15:22;;;;;;;1999.90;999.90;;;13.40;99.90;;;;;;6102357;23;20417;-75
2021/10/09 11:17:58;;;;;;;1999.90;999.90;;;13.40;99.90;;;;;;6102054;23;20492;-76
2021/10/09 11:20:28;;;;;;;1999.90;999.90;;;13.50;99.90;;;;;;6102105;23;20408;-76
2021/10/09 11:22:58;;;;;;;1999.90;633.00;;;13.50;99.90;;;;;;6138111;23;20398;-76
2021/10/09 11:25:30;;;;;;;1999.90;668.33;;;13.60;99.90;;;;;;6102516;23;20458;-76
2021/10/09 11:28:01;;;;;;;1999.90;892.53;;;13.60;99.90;;;;;;6102052;23;20447;-76
2021/10/09 11:30:30;;;;;;;1999.90;793.80;;;13.70;99.90;;;;;;6101997;23;20469;-76
2021/10/09 11:33:00;;;;;;;1999.90;708.20;;;13.70;99.90;;;;;;6137614;23;20519;-76
2021/10/09 11:35:34;;;;;;;1999.90;702.93;;;13.80;99.90;;;;;;6101855;23;20492;-76
2021/10/09 11:38:05;;;;;;;1999.90;857.23;;;13.80;99.90;;;;;;6128022;23;20464;-76
2021/10/09 11:40:40;;;;;;;1999.90;999.90;;;13.90;99.90;;;;;;6137917;23;20426;-76
2021/10/09 11:43:24;;;;;;;1999.90;489.90;;;13.90;99.90;;;;;;6102316;23;20240;-76
2021/10/09 11:46:01;;;;;;;1999.90;866.37;;;14.00;99.90;;;;;;6137856;23;20797;-75
2021/10/09 11:54:22;;;;;;;1999.90;952.33;;;14.10;99.90;;;;;;6137250;23;20524;-76
2021/10/09 11:56:50;;;;;;;1999.90;767.00;;;14.20;99.90;;;;;;6127438;23;20892;-76
2021/10/09 11:59:35;;;;;;;1999.90;791.43;;;14.20;99.90;;;;;;6101410;23;20757;-76
2021/10/09 12:02:03;;;;;;;1999.90;815.50;;;14.30;99.90;;;;;;6101752;23;20500;-76
2021/10/09 12:04:33;;;;;;;1999.90;887.00;;;14.30;99.90;;;;;;6101777;23;20748;-76
2021/10/09 12:07:08;;;;;;;1999.90;954.87;;;14.40;99.90;;;;;;6101364;23;20443;-76
2021/10/09 12:09:38;;;;;;;1999.90;854.77;;;14.40;99.90;;;;;;6101528;23;20504;-76
2021/10/09 12:12:18;;;;;;;1999.90;781.77;;;14.40;99.90;;;;;;6127442;23;20425;-79
2021/10/09 12:14:47;;;;;;;1999.90;893.23;;;14.50;99.90;;;;;;6137203;23;20504;-76
2021/10/09 12:17:16;;;;;;;1999.90;775.00;;;14.50;99.90;;;;;;6101384;23;20404;-76
2021/10/09 12:19:48;;;;;;;1999.90;806.33;;;14.60;99.90;;;;;;6101432;23;20417;-76
2021/10/09 12:22:16;;;;;;;1999.90;855.53;;;14.70;99.90;;;;;;6101306;23;20443;-76
2021/10/09 12:24:49;;;;;;;1999.90;823.73;;;14.70;99.90;;;;;;6101446;23;20388;-76
2021/10/09 12:27:19;;;;;;;1215.82;520.83;;;14.70;99.90;;;;;;6100346;23;20746;-75
2021/10/09 12:29:59;;;;;;;1999.90;908.43;;;14.80;99.90;;;;;;6101350;23;20182;-76
2021/10/09 12:32:28;;;;;;;1999.90;999.90;;;14.90;99.90;;;;;;6100868;23;20831;-76
2021/10/09 12:35:06;;;;;;;1999.90;802.40;;;14.90;99.90;;;;;;6137078;23;20185;-75
2021/10/09 12:37:36;;;;;;;1999.90;695.57;;;15.00;99.90;;;;;;6101483;23;20440;-76
2021/10/09 12:40:14;;;;;;;1999.90;689.47;;;15.00;99.90;;;;;;6101052;23;20509;-76
2021/10/09 12:42:48;;;;;;;1999.90;690.83;;;15.10;99.90;;;;;;6101185;23;20451;-76
2021/10/09 12:45:17;;;;;;;1999.90;774.80;;;15.10;99.90;;;;;;6101300;23;20455;-76
2021/10/09 12:47:55;;;;;;;1999.90;717.93;;;15.10;99.90;;;;;;6136842;23;20516;-76
2021/10/09 12:50:26;;;;;;;1999.90;866.97;;;15.10;99.90;;;;;;6127619;23;20781;-76
2021/10/09 12:52:55;;;;;;;1999.90;919.27;;;15.10;99.90;;;;;;6101153;23;20472;-76
2021/10/09 12:55:26;;;;;;;1999.90;662.80;;;15.20;99.90;;;;;;6127233;23;20720;-76
2021/10/09 12:57:58;;;;;;;1808.87;533.90;;;15.30;99.90;;;;;;6101111;23;20416;-76
2021/10/09 13:00:29;;;;;;;901.20;350.50;;;15.30;99.90;;;;;;6137190;23;20412;-76
2021/10/09 13:02:58;;;;;;;1611.13;520.93;;;15.30;99.90;;;;;;6100979;23;20783;-76
2021/10/09 13:05:29;;;;;;;1713.77;543.33;;;15.30;99.90;;;;;;6100852;23;20748;-76
2021/10/09 13:07:59;;;;;;;1930.33;564.80;;;15.40;99.90;;;;;;6136867;23;20392;-76
2021/10/09 13:10:30;;;;;;;1999.90;717.07;;;15.40;99.90;;;;;;6100774;23;20384;-76
2021/10/09 13:12:58;;;;;;;1999.90;850.90;;;15.40;99.90;;;;;;6100913;23;20791;-76
2021/10/09 13:15:27;;;;;;;85.00;69.03;;;15.50;99.90;;;;;;6100572;23;20408;-76
2021/10/09 13:17:55;;;;;;;1999.90;689.65;;;15.50;99.90;;;;;;6099579;23;20496;-76
2021/10/09 13:20:27;;;;;;;553.80;237.73;;;15.50;99.90;;;;;;6136613;23;20197;-76
2021/10/09 13:22:56;;;;;;;706.00;311.07;;;15.60;99.90;;;;;;6100871;23;20388;-76
2021/10/09 13:25:32;;;;;;;726.53;320.03;;;15.60;99.90;;;;;;6127169;23;20883;-75
2021/10/09 13:28:00;;;;;;;442.40;234.27;;;15.60;99.90;;;;;;6100762;23;20443;-76
2021/10/09 13:30:29;;;;;;;1656.10;503.77;;;15.60;99.90;;;;;;6136864;23;20452;-76
2021/10/09 13:32:57;;;;;;;1079.60;402.53;;;15.60;99.90;;;;;;6100555;23;20416;-76
2021/10/09 13:35:25;;;;;;;1046.83;406.07;;;15.70;99.90;;;;;;6100452;23;20760;-75
2021/10/09 13:37:59;;;;;;;1506.13;494.27;;;15.70;99.90;;;;;;6100502;23;20451;-76
2021/10/09 13:40:28;;;;;;;436.93;215.50;;;15.70;99.90;;;;;;6101180;23;20388;-76
2021/10/09 13:42:57;;;;;;;118.80;92.50;;;15.70;99.90;;;;;;6136326;23;20412;-76
2021/10/09 13:45:25;;;;;;;454.50;205.77;;;15.70;99.90;;;;;;6126885;23;20405;-76
2021/10/09 13:47:53;;;;;;;38.90;26.97;;;15.80;99.90;;;;;;6126768;23;20412;-76
2021/10/09 13:50:22;;;;;;;37.70;28.97;;;15.80;99.90;;;;;;6100706;23;20396;-76
2021/10/09 13:52:50;;;;;;;30.87;24.70;;;15.80;99.90;;;;;;6100636;23;20757;-76
2021/10/09 13:55:20;;;;;;;1999.90;838.38;;;15.80;99.90;;;;;;6125494;23;20811;-76
2021/10/09 13:57:48;;;;;;;69.47;62.23;;;15.90;98.70;;;;;;6099998;23;20208;-76
2021/10/09 14:00:16;;;;;;;1999.90;915.85;;;15.90;98.90;;;;;;6099926;23;20444;-76
2021/10/09 14:02:46;;;;;;;15.17;13.77;;;15.90;98.50;;;;;;6100392;23;20173;-76
2021/10/09 14:05:14;;;;;;;429.73;186.83;;;16.00;98.70;;;;;;6100606;23;20395;-76
2021/10/09 14:07:42;;;;;;;14.70;13.30;;;16.00;98.80;;;;;;6136839;23;20392;-76
2021/10/09 14:10:10;;;;;;;12.73;11.30;;;15.90;99.10;;;;;;6100626;23;20439;-76
2021/10/09 14:12:40;;;;;;;16.60;14.83;;;15.90;98.60;;;;;;6100479;23;20477;-76
2021/10/09 14:15:09;;;;;;;179.17;138.73;;;16.00;98.70;;;;;;6100341;23;20472;-76
2021/10/09 14:17:37;;;;;;;202.27;151.07;;;16.00;98.70;;;;;;6136158;23;20425;-76
2021/10/09 14:20:07;;;;;;;75.97;68.60;;;16.00;98.80;;;;;;6126334;23;20411;-76
2021/10/09 14:22:35;;;;;;;1195.70;396.00;;;16.00;98.80;;;;;;6100396;23;20450;-76
2021/10/09 14:25:04;;;;;;;10.40;7.47;;;16.00;98.90;;;;;;6136556;23;20388;-75
2021/10/09 14:27:33;;;;;;;8.60;6.80;;;16.00;98.60;;;;;;6100317;23;20482;-76
2021/10/09 14:30:03;;;;;;;7.70;6.80;;;16.00;98.40;;;;;;6100490;23;20419;-76
2021/10/09 14:32:31;;;;;;;7.50;6.30;;;16.00;98.30;;;;;;6100807;23;20373;-76
2021/10/09 14:34:59;;;;;;;10.60;9.57;;;16.00;98.10;;;;;;6136011;23;20831;-76